Time;durP1;ratioP1;P1;durP2;ratioP2;P2;SDS_P1;SDS_P2;PMS_P1;PMS_P2;Temp;Humidity;BMP_temperature;BMP_pressure;BME280_temperature;BME280_humidity;BME280_pressure;Samples;Min_cycle;Max_cycle;Signal;HPM_P1;HPM_P2
2021/07/22 00:00:08;;;;;;;11.37;7.17;;;;;;;17.26;70.19;97084.84;3579439;39;20486;-72
2021/07/22 00:02:37;;;;;;;13.20;6.60;;;;;;;17.16;70.20;97077.72;3580437;39;20436;-72
2021/07/22 00:05:08;;;;;;;15.17;7.40;;;;;;;17.14;70.80;97090.25;3577940;39;20832;-72
2021/07/22 00:07:38;;;;;;;16.33;7.27;;;;;;;17.17;70.96;97089.13;3581477;39;20879;-72
2021/07/22 00:10:06;;;;;;;9.13;6.30;;;;;;;17.08;70.84;97076.72;3584638;39;20761;-72
2021/07/22 00:12:34;;;;;;;11.30;6.90;;;;;;;17.09;71.59;97089.81;3581978;39;20525;-72
2021/07/22 00:15:02;;;;;;;9.17;6.37;;;;;;;17.09;71.30;97092.47;3580172;39;20829;-72
2021/07/22 00:17:31;;;;;;;15.70;6.57;;;;;;;17.05;71.15;97088.38;3580217;39;20888;-72
2021/07/22 00:20:00;;;;;;;8.40;6.30;;;;;;;17.06;70.42;97090.06;3581891;39;20838;-72
2021/07/22 00:22:29;;;;;;;12.60;7.07;;;;;;;16.97;70.30;97088.22;3584046;39;20720;-72
2021/07/22 00:24:58;;;;;;;11.63;6.30;;;;;;;17.01;70.48;97092.28;3583326;39;20922;-72
2021/07/22 00:27:26;;;;;;;13.10;6.90;;;;;;;17.12;70.36;97083.41;3580937;39;20755;-72
2021/07/22 00:29:54;;;;;;;15.33;6.40;;;;;;;17.14;69.97;97084.94;3579065;39;20821;-72
2021/07/22 00:32:22;;;;;;;13.73;7.00;;;;;;;16.92;70.54;97091.28;3581306;39;20726;-72
2021/07/22 00:34:50;;;;;;;14.63;7.90;;;;;;;17.00;70.01;97083.50;3582077;39;20460;-72
2021/07/22 00:37:18;;;;;;;13.93;7.30;;;;;;;16.95;70.61;97082.22;3580629;39;20453;-72
2021/07/22 00:39:47;;;;;;;13.57;7.20;;;;;;;16.87;70.67;97079.44;3580329;39;20464;-72
2021/07/22 00:42:17;;;;;;;10.90;5.93;;;;;;;16.89;71.52;97080.13;3581598;39;20524;-72
2021/07/22 00:44:45;;;;;;;10.23;6.70;;;;;;;16.87;71.14;97077.59;3576176;39;20495;-71
2021/07/22 00:47:12;;;;;;;13.27;7.97;;;;;;;16.90;71.26;97079.16;3577016;39;20675;-71
2021/07/22 00:49:41;;;;;;;13.63;7.43;;;;;;;16.84;71.88;97077.03;3576755;39;20465;-71
2021/07/22 00:52:09;;;;;;;11.73;7.20;;;;;;;16.79;71.57;97072.94;3578706;39;20904;-70
2021/07/22 00:54:37;;;;;;;18.87;6.43;;;;;;;16.64;71.63;97063.72;3578069;39;20761;-71
2021/07/22 00:57:05;;;;;;;15.10;7.73;;;;;;;16.65;71.31;97059.25;3582470;39;20558;-72
2021/07/22 00:59:35;;;;;;;9.53;6.80;;;;;;;16.44;71.70;97062.75;3582841;39;20526;-71
2021/07/22 01:02:04;;;;;;;15.43;6.97;;;;;;;16.40;71.77;97064.81;3579000;39;20441;-72
2021/07/22 01:04:32;;;;;;;13.13;7.63;;;;;;;16.33;71.20;97061.03;3582848;39;20533;-73
2021/07/22 01:07:00;;;;;;;20.00;7.40;;;;;;;16.22;71.74;97066.41;3579820;39;20437;-72
2021/07/22 01:09:28;;;;;;;13.60;8.07;;;;;;;16.19;71.50;97069.28;3582080;39;20540;-72
2021/07/22 01:11:56;;;;;;;12.40;6.13;;;;;;;16.24;71.85;97064.47;3581871;39;20465;-73
2021/07/22 01:14:24;;;;;;;14.83;6.93;;;;;;;16.07;72.59;97071.16;3581842;39;20529;-71
2021/07/22 01:16:53;;;;;;;18.33;7.20;;;;;;;16.04;73.12;97065.31;3579065;39;20931;-70
2021/07/22 01:19:21;;;;;;;12.70;7.10;;;;;;;16.02;72.85;97065.44;3582634;39;20434;-70
2021/07/22 01:21:51;;;;;;;11.20;6.27;;;;;;;15.98;73.14;97061.38;3580607;39;20417;-73
2021/07/22 01:24:19;;;;;;;10.90;6.87;;;;;;;15.93;73.21;97067.00;3582146;39;20458;-71
2021/07/22 01:26:47;;;;;;;12.00;7.20;;;;;;;15.96;73.38;97064.13;3581396;39;20448;-71
2021/07/22 01:29:14;;;;;;;9.23;6.37;;;;;;;15.99;73.21;97060.38;3579270;39;20841;-71
2021/07/22 01:31:42;;;;;;;13.67;7.73;;;;;;;15.92;72.82;97070.63;3578772;39;20738;-70
2021/07/22 01:34:10;;;;;;;16.77;8.03;;;;;;;15.84;73.05;97066.94;3584155;39;20701;-72
2021/07/22 01:36:38;;;;;;;13.57;7.37;;;;;;;15.79;73.16;97051.50;3571419;40;20528;-70
2021/07/22 01:39:07;;;;;;;13.00;7.30;;;;;;;15.79;73.18;97059.41;3571257;40;20551;-72
2021/07/22 01:41:37;;;;;;;15.60;7.47;;;;;;;15.78;73.67;97057.75;3566554;40;20485;-72
2021/07/22 01:44:06;;;;;;;12.07;7.60;;;;;;;15.77;73.44;97056.06;3570442;40;20784;-72
2021/07/22 01:46:34;;;;;;;9.83;6.93;;;;;;;15.68;74.22;97056.78;3582282;39;20829;-72
2021/07/22 01:49:02;;;;;;;12.67;8.07;;;;;;;15.57;73.63;97040.03;3581197;39;20709;-72
2021/07/22 01:51:29;;;;;;;13.07;7.23;;;;;;;15.62;73.79;97055.47;3584706;39;20760;-73
2021/07/22 01:53:59;;;;;;;14.90;6.43;;;;;;;15.57;73.78;97047.94;3579459;39;20530;-71
2021/07/22 01:56:28;;;;;;;13.27;7.10;;;;;;;15.55;74.00;97052.50;3577443;39;20465;-71
2021/07/22 01:58:56;;;;;;;17.93;7.20;;;;;;;15.55;73.59;97046.41;3581896;39;20492;-71
2021/07/22 02:01:24;;;;;;;13.47;7.13;;;;;;;15.41;73.48;97055.44;3580664;39;20780;-72
2021/07/22 02:03:52;;;;;;;11.10;7.07;;;;;;;14.84;76.28;97044.16;3580112;39;20477;-72
2021/07/22 02:06:20;;;;;;;12.00;7.70;;;;;;;15.11;75.31;97038.50;3578890;39;20533;-71
2021/07/22 02:08:48;;;;;;;10.57;6.47;;;;;;;15.16;74.94;97035.47;3576723;40;20570;-72
2021/07/22 02:11:16;;;;;;;11.50;7.03;;;;;;;15.08;74.94;97043.16;3575448;39;20481;-72
2021/07/22 02:13:45;;;;;;;10.47;6.57;;;;;;;15.13;74.80;97040.97;3577715;39;20438;-71
2021/07/22 02:16:13;;;;;;;12.67;6.30;;;;;;;15.14;74.96;97040.88;3576517;39;20438;-71
2021/07/22 02:18:41;;;;;;;16.87;6.20;;;;;;;15.19;74.49;97033.44;3581216;39;20432;-71
2021/07/22 02:21:12;;;;;;;9.87;5.90;;;;;;;15.16;74.02;97027.56;3581486;39;20456;-73
2021/07/22 02:23:40;;;;;;;17.47;6.97;;;;;;;15.03;74.09;97040.88;3578343;40;20566;-72
2021/07/22 02:26:09;;;;;;;12.83;6.43;;;;;;;15.07;74.11;97037.03;3583393;39;20954;-73
2021/07/22 02:28:37;;;;;;;12.57;6.80;;;;;;;14.99;74.67;97039.44;3581869;39;20472;-73
2021/07/22 02:31:06;;;;;;;23.07;7.20;;;;;;;14.97;74.68;97041.38;3582640;39;20521;-72
2021/07/22 02:33:34;;;;;;;27.57;6.73;;;;;;;14.94;74.42;97031.09;3580609;39;20937;-73
2021/07/22 02:36:02;;;;;;;15.80;7.13;;;;;;;14.91;74.46;97041.88;3583421;39;20950;-72
2021/07/22 02:38:30;;;;;;;13.60;7.20;;;;;;;14.91;75.01;97042.69;3582823;39;20471;-73
2021/07/22 02:40:58;;;;;;;13.40;6.50;;;;;;;14.91;75.14;97044.50;3580795;39;20823;-73
2021/07/22 02:43:26;;;;;;;11.47;7.13;;;;;;;14.90;75.06;97046.31;3580179;39;20901;-74
2021/07/22 02:45:54;;;;;;;11.53;6.47;;;;;;;14.94;74.91;97044.28;3580477;39;20491;-73
2021/07/22 02:48:24;;;;;;;8.93;6.30;;;;;;;14.86;74.84;97050.16;3584561;39;20448;-73
2021/07/22 02:50:51;;;;;;;10.90;6.67;;;;;;;14.73;75.14;97055.53;3581687;39;20836;-72
2021/07/22 02:53:19;;;;;;;15.47;6.93;;;;;;;14.76;75.65;97054.44;3579837;39;20450;-73
2021/07/22 02:55:47;;;;;;;11.77;6.77;;;;;;;14.75;75.49;97042.25;3578796;39;20462;-72
2021/07/22 02:58:15;;;;;;;12.77;8.00;;;;;;;14.81;75.40;97052.31;3576374;40;20457;-73
2021/07/22 03:00:43;;;;;;;14.50;7.07;;;;;;;14.78;75.46;97058.66;3579958;39;20558;-73
2021/07/22 03:03:11;;;;;;;11.27;7.03;;;;;;;14.77;75.54;97054.34;3581972;39;20560;-72
2021/07/22 03:05:40;;;;;;;15.63;7.10;;;;;;;14.73;75.95;97057.34;3580405;39;20860;-72
2021/07/22 03:08:08;;;;;;;10.27;6.40;;;;;;;14.69;76.07;97051.47;3578889;39;20457;-73
2021/07/22 03:10:36;;;;;;;14.90;7.10;;;;;;;14.73;75.83;97050.25;3577831;39;20450;-73
2021/07/22 03:13:04;;;;;;;19.20;7.83;;;;;;;14.68;76.00;97055.06;3581714;39;20945;-71
2021/07/22 03:15:32;;;;;;;12.53;6.73;;;;;;;14.63;76.14;97052.78;3581675;39;20518;-72
2021/07/22 03:18:00;;;;;;;14.17;6.93;;;;;;;14.57;76.43;97055.91;3582496;39;20436;-72
2021/07/22 03:20:28;;;;;;;18.13;7.30;;;;;;;14.53;76.78;97056.22;3581597;39;20932;-73
2021/07/22 03:22:57;;;;;;;13.20;7.20;;;;;;;14.41;76.45;97040.41;3579372;39;20441;-73
2021/07/22 03:25:25;;;;;;;12.00;6.53;;;;;;;14.59;76.32;97051.34;3583535;39;21210;-74
2021/07/22 03:27:54;;;;;;;12.37;7.43;;;;;;;14.51;76.38;97055.50;3581458;39;20441;-72
2021/07/22 03:30:22;;;;;;;12.87;7.17;;;;;;;14.49;76.12;97054.78;3581681;39;20457;-73
2021/07/22 03:32:50;;;;;;;15.80;7.33;;;;;;;14.39;76.74;97052.88;3579697;39;20422;-74
2021/07/22 03:35:18;;;;;;;17.30;7.80;;;;;;;14.35;76.94;97051.44;3577999;39;20487;-72
2021/07/22 03:37:46;;;;;;;20.87;7.80;;;;;;;14.36;77.00;97049.63;3583031;39;20548;-72
2021/07/22 03:40:15;;;;;;;12.97;6.67;;;;;;;14.28;77.05;97054.63;3581709;39;20472;-74
2021/07/22 03:42:43;;;;;;;10.30;6.63;;;;;;;14.20;77.01;97047.31;3583011;39;20957;-72
2021/07/22 03:45:13;;;;;;;16.97;7.30;;;;;;;14.27;77.34;97045.91;3580824;39;20564;-74
2021/07/22 03:47:41;;;;;;;11.67;6.30;;;;;;;14.28;77.11;97044.09;3581449;39;20761;-74
2021/07/22 03:50:09;;;;;;;19.93;6.90;;;;;;;14.26;77.22;97051.28;3581199;39;21108;-72
2021/07/22 03:52:37;;;;;;;15.80;6.67;;;;;;;13.82;79.17;97048.44;3577280;39;20514;-73
2021/07/22 03:55:06;;;;;;;12.60;6.43;;;;;;;13.94;78.56;97042.25;3577179;39;20472;-72
2021/07/22 03:57:35;;;;;;;11.00;6.20;;;;;;;14.13;78.13;97051.38;3580744;39;20460;-73
2021/07/22 04:00:04;;;;;;;12.70;7.50;;;;;;;14.20;77.26;97050.78;3579336;39;20566;-72
2021/07/22 04:02:32;;;;;;;21.17;7.27;;;;;;;14.22;77.20;97054.16;3582274;39;20481;-73
2021/07/22 04:05:00;;;;;;;17.53;7.57;;;;;;;14.14;77.46;97058.34;3582630;39;20449;-72
2021/07/22 04:07:28;;;;;;;16.30;8.13;;;;;;;14.25;77.14;97055.72;3580999;39;20546;-72
2021/07/22 04:09:56;;;;;;;10.13;6.27;;;;;;;14.30;77.03;97058.00;3579787;39;20958;-74
2021/07/22 04:12:24;;;;;;;16.60;7.10;;;;;;;14.37;76.94;97059.22;3580131;39;20782;-72
2021/07/22 04:14:53;;;;;;;15.77;7.23;;;;;;;14.51;76.58;97061.63;3583698;39;20447;-73
2021/07/22 04:17:21;;;;;;;9.47;6.77;;;;;;;14.63;77.00;97058.06;3580374;39;20837;-75
2021/07/22 04:19:49;;;;;;;15.67;7.00;;;;;;;14.74;77.37;97064.28;3581315;39;20469;-75
2021/07/22 04:22:17;;;;;;;13.97;6.93;;;;;;;14.89;76.87;97059.59;3580698;39;20441;-75
2021/07/22 04:24:45;;;;;;;25.83;7.77;;;;;;;14.83;77.09;97058.28;3580481;39;20918;-75
2021/07/22 04:27:13;;;;;;;15.60;7.30;;;;;;;14.74;76.55;97061.63;3581461;39;20452;-74
2021/07/22 04:29:42;;;;;;;16.57;6.87;;;;;;;14.76;75.47;97063.22;3582253;39;20440;-74
2021/07/22 04:32:11;;;;;;;13.43;7.93;;;;;;;14.70;75.91;97066.34;3581081;39;20950;-74
2021/07/22 04:34:39;;;;;;;13.27;6.90;;;;;;;14.81;76.04;97062.84;3582973;39;20464;-75
2021/07/22 04:37:07;;;;;;;15.97;7.57;;;;;;;14.51;78.70;97052.88;3582680;39;21132;-76
2021/07/22 04:39:35;;;;;;;15.23;6.80;;;;;;;14.94;78.00;97057.47;3582566;39;20471;-75
2021/07/22 04:42:03;;;;;;;13.50;7.83;;;;;;;15.09;76.72;97061.50;3582479;39;20514;-76
2021/07/22 04:44:31;;;;;;;14.80;6.83;;;;;;;14.96;76.07;97061.63;3582818;39;20461;-75
2021/07/22 04:47:00;;;;;;;14.00;6.63;;;;;;;15.03;75.16;97057.56;3579355;39;20545;-74
2021/07/22 04:49:29;;;;;;;14.27;7.10;;;;;;;14.92;74.88;97056.75;3585951;39;20843;-74
2021/07/22 04:51:58;;;;;;;10.10;7.60;;;;;;;14.74;77.27;97051.97;3584028;39;20499;-74
2021/07/22 04:54:26;;;;;;;11.07;6.73;;;;;;;14.88;78.14;97042.09;3581550;39;21089;-75
2021/07/22 04:56:54;;;;;;;14.07;6.70;;;;;;;15.14;77.10;97059.34;3583968;39;20461;-74
2021/07/22 04:59:22;;;;;;;13.77;6.43;;;;;;;15.43;75.37;97061.44;3579713;39;20494;-74
2021/07/22 05:01:50;;;;;;;19.30;7.70;;;;;;;15.53;74.30;97065.00;3580243;39;20578;-74
2021/07/22 05:04:18;;;;;;;15.40;7.07;;;;;;;14.88;76.18;97050.88;3581667;39;20475;-75
2021/07/22 05:06:48;;;;;;;10.00;6.97;;;;;;;15.13;74.94;97057.66;3585757;39;20444;-75
2021/07/22 05:09:16;;;;;;;25.50;7.40;;;;;;;14.74;77.31;97057.22;3581521;39;20727;-74
2021/07/22 05:11:44;;;;;;;13.30;8.07;;;;;;;15.19;75.79;97053.69;3582468;39;21148;-74
2021/07/22 05:14:12;;;;;;;18.50;6.40;;;;;;;15.42;75.03;97059.75;3579205;39;20902;-75
2021/07/22 05:16:40;;;;;;;22.30;8.03;;;;;;;15.61;74.07;97061.72;3583953;39;20859;-74
2021/07/22 05:19:09;;;;;;;15.50;6.97;;;;;;;15.40;75.37;97059.88;3577573;40;20818;-74
2021/07/22 05:21:37;;;;;;;12.50;6.27;;;;;;;15.30;76.25;97068.66;3579777;39;20460;-74
2021/07/22 05:24:06;;;;;;;12.03;7.10;;;;;;;15.52;75.63;97052.75;3579381;39;20805;-74
2021/07/22 05:26:34;;;;;;;21.10;7.07;;;;;;;15.87;74.74;97067.53;3581836;39;21029;-72
2021/07/22 05:29:02;;;;;;;13.40;7.63;;;;;;;16.01;74.39;97067.25;3583090;39;20512;-74
2021/07/22 05:31:30;;;;;;;11.87;7.60;;;;;;;15.49;75.98;97068.84;3582110;39;21106;-72
2021/07/22 05:34:00;;;;;;;14.00;7.37;;;;;;;15.46;76.18;97071.72;3582031;39;20432;-74
2021/07/22 05:36:28;;;;;;;15.80;7.30;;;;;;;15.84;75.01;97075.72;3579694;39;20471;-73
2021/07/22 05:38:55;;;;;;;17.10;9.20;;;;;;;15.69;75.54;97074.31;3581271;39;20674;-74
2021/07/22 05:41:25;;;;;;;17.50;7.30;;;;;;;16.46;73.08;97073.22;3582277;39;20782;-75
2021/07/22 05:43:53;;;;;;;18.13;7.43;;;;;;;16.93;71.72;97069.13;3584662;39;20454;-72
2021/07/22 05:46:22;;;;;;;12.53;6.83;;;;;;;17.34;70.52;97079.72;3583594;39;20980;-71
2021/07/22 05:48:50;;;;;;;18.63;7.93;;;;;;;17.31;70.72;97077.34;3582456;39;20465;-71
2021/07/22 05:51:19;;;;;;;21.60;13.57;;;;;;;17.08;72.37;97080.19;3580731;39;20582;-72
2021/07/22 05:53:46;;;;;;;15.60;8.83;;;;;;;16.87;72.45;97076.78;3583780;39;20432;-71
2021/07/22 05:56:18;;;;;;;19.83;7.40;;;;;;;16.82;70.37;97073.69;3577763;39;20863;-72
2021/07/22 05:58:47;;;;;;;14.07;7.93;;;;;;;16.65;73.61;97083.88;3579138;40;20437;-73
2021/07/22 06:01:16;;;;;;;14.00;7.63;;;;;;;17.16;72.43;97083.00;3580578;39;20586;-71
2021/07/22 06:03:44;;;;;;;14.97;7.00;;;;;;;17.59;69.35;97079.19;3581063;39;21174;-74
2021/07/22 06:06:12;;;;;;;18.27;7.27;;;;;;;17.79;68.42;97071.25;3580823;39;20491;-70
2021/07/22 06:08:40;;;;;;;19.13;7.80;;;;;;;18.02;68.53;97081.63;3581519;39;20705;-71
2021/07/22 06:11:09;;;;;;;12.83;6.37;;;;;;;18.31;67.53;97079.78;3578517;39;20679;-73
2021/07/22 06:13:37;;;;;;;15.50;7.03;;;;;;;18.87;65.51;97077.28;3577203;40;20449;-72
2021/07/22 06:16:10;;;;;;;14.97;7.00;;;;;;;19.15;63.15;97062.19;3577759;39;20864;-70
2021/07/22 06:18:38;;;;;;;15.30;7.57;;;;;;;19.02;64.00;97078.47;3582723;39;20471;-70
2021/07/22 06:21:06;;;;;;;15.03;6.80;;;;;;;18.27;66.69;97080.19;3583035;39;20545;-71
2021/07/22 06:23:34;;;;;;;27.30;7.00;;;;;;;18.58;65.26;97084.31;3583516;39;20558;-71
2021/07/22 06:26:02;;;;;;;23.47;7.33;;;;;;;18.68;64.72;97078.13;3578493;39;20479;-72
2021/07/22 06:28:31;;;;;;;13.20;6.77;;;;;;;18.53;65.30;97078.59;3579739;39;20507;-73
2021/07/22 06:30:59;;;;;;;57.77;33.13;;;;;;;19.03;64.79;97077.47;3586654;39;20685;-71
2021/07/22 06:33:28;;;;;;;16.37;6.87;;;;;;;19.27;63.30;97081.44;3583408;39;20810;-72
2021/07/22 06:35:56;;;;;;;11.73;6.13;;;;;;;19.67;61.58;97083.66;3578972;39;20898;-72
2021/07/22 06:38:25;;;;;;;17.77;7.17;;;;;;;19.87;61.76;97084.38;3576888;40;20698;-71
2021/07/22 06:40:53;;;;;;;24.37;6.90;;;;;;;19.66;62.09;97087.34;3576947;39;20972;-75
2021/07/22 06:43:20;;;;;;;13.70;6.70;;;;;;;19.84;62.65;97083.88;3583065;39;20944;-73
2021/07/22 06:45:48;;;;;;;17.50;5.90;;;;;;;19.74;61.71;97078.63;3581235;39;20758;-73
2021/07/22 06:48:16;;;;;;;10.50;6.03;;;;;;;20.19;61.02;97088.34;3581065;39;20522;-74
2021/07/22 06:50:46;;;;;;;20.70;6.97;;;;;;;20.06;59.39;97085.25;3578922;39;21099;-73
2021/07/22 06:53:14;;;;;;;18.43;8.47;;;;;;;19.85;60.06;97089.03;3576095;40;20445;-76
2021/07/22 06:55:42;;;;;;;10.83;6.07;;;;;;;19.99;59.71;97082.34;3582390;39;20820;-74
2021/07/22 06:58:10;;;;;;;12.70;6.17;;;;;;;19.93;59.90;97082.94;3576845;40;20709;-73
2021/07/22 07:00:38;;;;;;;13.93;6.43;;;;;;;20.06;59.13;97079.91;3576488;39;20472;-72
2021/07/22 07:03:09;;;;;;;14.33;5.97;;;;;;;20.38;58.09;97079.31;3579058;39;20464;-74
2021/07/22 07:05:37;;;;;;;10.57;6.10;;;;;;;20.60;56.82;97070.06;3579721;39;20472;-74
2021/07/22 07:08:07;;;;;;;15.30;6.00;;;;;;;20.43;58.19;97074.38;3581092;39;20490;-73
2021/07/22 07:10:35;;;;;;;12.80;6.40;;;;;;;20.68;57.26;97075.41;3575270;39;20726;-74
2021/07/22 07:13:03;;;;;;;16.00;6.10;;;;;;;20.86;57.57;97077.19;3576816;39;20457;-73
2021/07/22 07:15:31;;;;;;;23.97;6.03;;;;;;;21.41;56.07;97075.91;3578351;39;20867;-74
2021/07/22 07:18:03;;;;;;;22.23;6.90;;;;;;;21.33;56.02;97068.72;3582213;39;20441;-73
2021/07/22 07:20:32;;;;;;;41.97;7.70;;;;;;;22.21;52.79;97072.69;3585168;39;20448;-74
2021/07/22 07:23:00;;;;;;;34.43;7.97;;;;;;;22.33;51.86;97065.25;3581519;39;20430;-77
2021/07/22 07:25:29;;;;;;;36.03;6.77;;;;;;;21.87;53.38;97071.84;3576337;39;21111;-76
2021/07/22 07:27:57;;;;;;;29.00;5.80;;;;;;;22.44;53.11;97064.88;3575968;40;20864;-74
2021/07/22 07:30:25;;;;;;;38.83;6.50;;;;;;;22.72;53.09;97068.00;3576912;39;20918;-72
2021/07/22 07:32:54;;;;;;;17.63;5.87;;;;;;;23.15;51.04;97065.03;3581025;39;20876;-74
2021/07/22 07:35:25;;;;;;;18.83;6.20;;;;;;;21.39;54.54;97070.72;3580368;39;20739;-73
2021/07/22 07:37:53;;;;;;;16.60;6.53;;;;;;;22.03;54.23;97067.53;3578374;39;20921;-74
2021/07/22 07:40:21;;;;;;;12.33;5.20;;;;;;;21.85;54.23;97057.84;3577287;39;20486;-75
2021/07/22 07:42:50;;;;;;;13.13;6.07;;;;;;;22.76;52.24;97058.66;3581980;39;20913;-72
2021/07/22 07:45:18;;;;;;;17.23;5.67;;;;;;;21.73;52.15;97056.50;3582745;39;20762;-71
2021/07/22 07:47:46;;;;;;;25.47;6.20;;;;;;;22.61;49.90;97053.19;3581064;39;20828;-73
2021/07/22 07:50:14;;;;;;;19.43;5.80;;;;;;;22.70;49.44;97054.00;3576125;39;20904;-70
2021/07/22 07:52:43;;;;;;;30.50;5.60;;;;;;;22.58;47.97;97061.53;3576140;40;20445;-74
2021/07/22 07:55:11;;;;;;;13.73;5.93;;;;;;;22.99;48.44;97052.56;3580000;39;21102;-72
2021/07/22 07:57:39;;;;;;;31.50;6.07;;;;;;;22.87;47.87;97057.44;3584554;39;20963;-71
2021/07/22 08:00:10;;;;;;;15.47;5.80;;;;;;;22.63;50.31;97053.00;3580225;39;21015;-72
2021/07/22 08:02:37;;;;;;;10.93;5.43;;;;;;;23.19;50.18;97053.00;3582218;39;20417;-71
2021/07/22 08:05:06;;;;;;;11.83;6.07;;;;;;;23.70;47.46;97053.41;3581389;39;20472;-72
2021/07/22 08:07:35;;;;;;;8.93;5.30;;;;;;;23.72;45.26;97050.53;3581193;39;20755;-74
2021/07/22 08:10:03;;;;;;;14.80;6.70;;;;;;;23.63;46.76;97060.47;3580255;39;20503;-71
2021/07/22 08:12:33;;;;;;;16.90;6.30;;;;;;;24.33;46.36;97050.63;3582302;39;20702;-71
2021/07/22 08:15:01;;;;;;;15.67;5.77;;;;;;;24.66;46.56;97046.63;3580969;39;21259;-71
2021/07/22 08:17:30;;;;;;;7.20;5.20;;;;;;;25.03;46.90;97041.34;3580460;39;20453;-70
2021/07/22 08:20:00;;;;;;;8.17;4.60;;;;;;;25.31;46.54;97044.22;3576889;39;20453;-72
2021/07/22 08:22:28;;;;;;;16.03;6.27;;;;;;;23.49;47.29;97044.16;3578510;39;20462;-72
2021/07/22 08:24:55;;;;;;;11.20;5.70;;;;;;;24.84;46.62;97048.13;3579576;39;20460;-72
2021/07/22 08:27:27;;;;;;;13.60;6.53;;;;;;;24.98;45.58;97039.25;3581665;39;20679;-72
2021/07/22 08:29:55;;;;;;;8.73;5.20;;;;;;;25.35;46.11;97039.31;3580312;39;20480;-71
2021/07/22 08:32:24;;;;;;;12.77;5.40;;;;;;;25.72;44.54;97034.75;3581130;39;20526;-71
2021/07/22 08:34:53;;;;;;;10.27;4.90;;;;;;;26.01;42.82;97040.06;3584098;39;20552;-71
2021/07/22 08:37:21;;;;;;;10.00;5.67;;;;;;;26.03;44.06;97040.69;3582580;39;20441;-71
2021/07/22 08:39:50;;;;;;;9.83;5.17;;;;;;;24.50;43.30;97051.28;3581059;39;20452;-73
2021/07/22 08:42:19;;;;;;;9.07;5.63;;;;;;;25.02;41.87;97042.38;3581537;39;20873;-71
2021/07/22 08:44:47;;;;;;;20.07;5.63;;;;;;;24.02;43.22;97046.19;3577183;39;20759;-71
2021/07/22 08:47:16;;;;;;;21.10;6.30;;;;;;;24.35;43.07;97046.75;3581485;39;21107;-71
2021/07/22 08:49:44;;;;;;;14.27;5.57;;;;;;;25.71;43.01;97044.66;3582225;39;20805;-72
2021/07/22 08:52:13;;;;;;;13.00;6.20;;;;;;;26.41;43.18;97048.44;3580462;39;20699;-72
2021/07/22 08:54:42;;;;;;;10.13;6.50;;;;;;;25.88;44.22;97044.44;3581773;39;20472;-72
2021/07/22 08:57:11;;;;;;;8.57;4.97;;;;;;;26.82;43.30;97039.66;3582828;39;20831;-72
2021/07/22 08:59:40;;;;;;;7.20;5.30;;;;;;;26.39;43.75;97047.78;3576409;39;20557;-71
2021/07/22 09:02:08;;;;;;;13.83;5.50;;;;;;;27.21;40.88;97040.06;3576653;39;20839;-72
2021/07/22 09:04:52;;;;;;;12.00;5.90;;;;;;;27.45;39.94;97043.28;3582343;39;20476;-71
2021/07/22 09:07:21;;;;;;;7.87;5.63;;;;;;;27.73;39.28;97037.78;3577954;39;20441;-71
2021/07/22 09:10:12;;;;;;;13.80;6.20;;;;;;;27.19;39.47;97044.81;3580549;39;20712;-71
2021/07/22 09:12:41;;;;;;;13.17;6.10;;;;;;;27.11;39.39;97047.66;3577540;40;20454;-72
2021/07/22 09:15:10;;;;;;;10.30;5.63;;;;;;;27.35;39.38;97047.19;3581165;39;20463;-72
2021/07/22 09:17:58;;;;;;;9.10;5.30;;;;;;;27.99;38.14;97047.78;3579102;39;20705;-72
2021/07/22 09:20:29;;;;;;;11.73;6.00;;;;;;;28.20;38.55;97047.59;3581003;39;20844;-71
2021/07/22 09:22:59;;;;;;;7.50;5.10;;;;;;;28.19;38.31;97053.19;3583837;39;20440;-71
2021/07/22 09:25:44;;;;;;;12.00;5.17;;;;;;;28.17;38.11;97049.88;3582318;39;20465;-72
2021/07/22 09:28:13;;;;;;;9.27;5.70;;;;;;;27.24;38.89;97047.75;3581654;39;20436;-71
2021/07/22 09:30:55;;;;;;;34.93;6.50;;;;;;;26.56;42.19;97052.88;3579996;39;20747;-71
2021/07/22 09:33:39;;;;;;;13.00;5.60;;;;;;;27.42;38.93;97050.72;3579357;39;20748;-72
2021/07/22 09:36:09;;;;;;;13.63;6.67;;;;;;;27.88;38.81;97051.09;3583270;39;20531;-71
2021/07/22 09:38:39;;;;;;;8.03;4.97;;;;;;;28.36;37.79;97049.06;3580785;39;20804;-71
2021/07/22 09:41:18;;;;;;;15.37;5.70;;;;;;;28.44;36.63;97050.69;3580534;39;20853;-73
2021/07/22 09:43:46;;;;;;;11.70;4.87;;;;;;;28.08;37.29;97048.41;3579187;39;20486;-71
2021/07/22 09:46:15;;;;;;;18.20;6.20;;;;;;;27.80;39.57;97050.22;3576191;39;20914;-72
2021/07/22 09:49:11;;;;;;;9.90;5.20;;;;;;;28.56;37.70;97051.78;3576960;40;20456;-71
2021/07/22 09:51:39;;;;;;;10.07;5.70;;;;;;;25.84;38.51;97044.81;3581011;39;20773;-71
2021/07/22 09:54:09;;;;;;;13.00;5.80;;;;;;;27.30;39.21;97035.38;3580032;39;20800;-72
2021/07/22 09:56:37;;;;;;;11.80;5.77;;;;;;;28.08;38.78;97041.16;3577943;39;20475;-72
2021/07/22 09:59:06;;;;;;;10.67;6.67;;;;;;;27.73;35.88;97032.38;3580302;39;20437;-72
2021/07/22 10:01:41;;;;;;;10.00;5.90;;;;;;;25.84;41.83;97028.72;3580279;39;20772;-72
2021/07/22 10:04:10;;;;;;;8.93;5.93;;;;;;;27.87;38.98;97027.88;3581314;39;20488;-71
2021/07/22 10:06:43;;;;;;;13.37;5.67;;;;;;;28.24;36.73;97031.84;3580020;39;20843;-71
2021/07/22 10:09:17;;;;;;;31.67;21.43;;;;;;;29.02;35.70;97020.38;3582037;39;20445;-72
2021/07/22 10:11:47;;;;;;;71.70;11.03;;;;;;;29.17;36.19;97020.97;3582593;39;20465;-73
2021/07/22 10:14:18;;;;;;;8.40;5.60;;;;;;;26.81;37.04;97019.22;3580377;39;20747;-72
2021/07/22 10:16:48;;;;;;;12.53;5.73;;;;;;;28.15;37.17;97027.72;3580934;39;20432;-71
2021/07/22 10:19:17;;;;;;;9.50;5.80;;;;;;;28.81;35.96;97018.75;3578511;39;20772;-72
2021/07/22 10:21:45;;;;;;;7.90;5.00;;;;;;;28.67;36.16;97017.16;3579132;39;20663;-72
2021/07/22 10:24:16;;;;;;;10.30;5.70;;;;;;;29.63;34.48;97013.69;3577139;39;20823;-73
2021/07/22 10:26:45;;;;;;;10.93;6.03;;;;;;;29.93;34.61;97008.56;3579615;39;20972;-71
2021/07/22 10:29:12;;;;;;;12.43;6.50;;;;;;;30.31;34.87;97013.06;3578197;39;20455;-71
2021/07/22 10:31:43;;;;;;;9.10;6.40;;;;;;;30.17;33.43;96998.00;3577882;40;20460;-72
2021/07/22 10:34:13;;;;;;;13.57;6.20;;;;;;;30.23;32.79;97005.22;3582535;39;20955;-72
2021/07/22 10:36:45;;;;;;;14.20;5.33;;;;;;;30.41;33.62;97004.44;3581756;39;20894;-71
2021/07/22 10:39:14;;;;;;;11.90;6.10;;;;;;;29.46;33.75;96999.91;3579938;39;20442;-72
2021/07/22 10:41:42;;;;;;;13.00;5.60;;;;;;;29.82;32.18;96990.34;3576401;39;20875;-72
2021/07/22 10:44:32;;;;;;;6.90;5.50;;;;;;;29.82;33.34;96990.34;3579697;39;20465;-72
2021/07/22 10:47:02;;;;;;;12.47;6.03;;;;;;;30.74;32.19;96992.50;3575469;40;20933;-71
2021/07/22 10:49:40;;;;;;;10.33;6.07;;;;;;;27.79;35.49;96997.41;3575493;39;20576;-73
2021/07/22 10:52:10;;;;;;;11.70;5.47;;;;;;;29.27;33.40;96990.84;3571381;40;20450;-73
2021/07/22 10:54:52;;;;;;;8.70;6.67;;;;;;;27.12;35.88;96992.88;3571518;39;20452;-71
2021/07/22 10:57:38;;;;;;;14.17;6.10;;;;;;;29.01;34.52;96988.22;3578177;39;20880;-71
2021/07/22 11:00:09;;;;;;;8.53;5.17;;;;;;;29.67;33.32;96989.81;3577388;39;20564;-71
2021/07/22 11:02:41;;;;;;;9.33;4.90;;;;;;;29.92;32.86;96988.00;3580642;39;20441;-72
2021/07/22 11:05:11;;;;;;;9.60;5.27;;;;;;;30.08;32.11;96983.91;3578586;39;20950;-71
2021/07/22 11:07:40;;;;;;;11.33;6.13;;;;;;;29.73;32.22;96986.25;3578295;39;20958;-72
2021/07/22 11:10:53;;;;;;;9.43;5.30;;;;;;;29.08;32.64;96986.34;3581669;39;20865;-71
2021/07/22 11:13:41;;;;;;;12.90;6.10;;;;;;;31.05;30.57;96979.88;3580845;39;20760;-73
2021/07/22 11:16:11;;;;;;;27.20;18.03;;;;;;;31.74;30.03;96983.16;3578515;39;20464;-72
2021/07/22 11:19:00;;;;;;;8.60;5.93;;;;;;;30.86;31.21;96971.75;3577101;40;20518;-72
2021/07/22 11:21:30;;;;;;;8.60;5.27;;;;;;;30.91;30.70;96974.66;3582029;39;20495;-72
2021/07/22 11:24:04;;;;;;;14.80;6.50;;;;;;;31.48;31.28;96973.53;3581309;39;20679;-71
2021/07/22 11:26:35;;;;;;;14.80;6.20;;;;;;;31.47;29.51;96980.84;3579747;39;20871;-73
2021/07/22 11:29:14;;;;;;;8.60;5.87;;;;;;;31.38;30.59;96973.22;3581752;39;20452;-72
2021/07/22 11:31:44;;;;;;;15.67;6.10;;;;;;;32.04;28.80;96975.00;3580933;39;20425;-72
2021/07/22 11:34:12;;;;;;;24.20;7.40;;;;;;;31.89;30.08;96977.28;3579339;39;20430;-72
2021/07/22 11:36:40;;;;;;;14.13;6.67;;;;;;;30.67;30.43;96956.59;3578285;39;20821;-72